sensor_id;sensor_type;location;lat;lon;timestamp;temperature;humidity
6244;DHT22;3155;49.940;8.450;2023-01-13T00:00:13;8.80;99.90
6244;DHT22;3155;49.940;8.450;2023-01-13T00:02:40;8.80;99.90
6244;DHT22;3155;49.940;8.450;2023-01-13T00:05:07;8.80;99.90
6244;DHT22;3155;49.940;8.450;2023-01-13T00:07:35;8.80;99.90
6244;DHT22;3155;49.940;8.450;2023-01-13T00:10:02;8.80;99.90
6244;DHT22;3155;49.940;8.450;2023-01-13T00:12:31;8.80;99.90
6244;DHT22;3155;49.940;8.450;2023-01-13T00:14:58;8.80;99.90
6244;DHT22;3155;49.940;8.450;2023-01-13T00:17:25;8.80;99.90
6244;DHT22;3155;49.940;8.450;2023-01-13T00:19:51;8.80;99.90
6244;DHT22;3155;49.940;8.450;2023-01-13T00:22:18;8.80;99.90
6244;DHT22;3155;49.940;8.450;2023-01-13T00:24:45;8.80;99.90
6244;DHT22;3155;49.940;8.450;2023-01-13T00:27:11;8.90;99.90
6244;DHT22;3155;49.940;8.450;2023-01-13T00:29:38;8.90;99.90
6244;DHT22;3155;49.940;8.450;2023-01-13T00:32:05;8.90;99.90
6244;DHT22;3155;49.940;8.450;2023-01-13T00:34:34;9.00;99.90
6244;DHT22;3155;49.940;8.450;2023-01-13T00:37:01;9.00;99.90
6244;DHT22;3155;49.940;8.450;2023-01-13T00:39:30;9.00;99.90
6244;DHT22;3155;49.940;8.450;2023-01-13T00:41:56;9.00;99.90
6244;DHT22;3155;49.940;8.450;2023-01-13T00:44:42;9.00;99.90
6244;DHT22;3155;49.940;8.450;2023-01-13T00:47:08;9.00;99.90
6244;DHT22;3155;49.940;8.450;2023-01-13T00:49:35;9.10;99.90
6244;DHT22;3155;49.940;8.450;2023-01-13T00:52:01;9.10;99.90
6244;DHT22;3155;49.940;8.450;2023-01-13T00:54:31;9.10;99.90
6244;DHT22;3155;49.940;8.450;2023-01-13T00:56:58;9.10;99.90
6244;DHT22;3155;49.940;8.450;2023-01-13T00:59:25;9.10;99.90
6244;DHT22;3155;49.940;8.450;2023-01-13T01:01:51;9.00;99.90
6244;DHT22;3155;49.940;8.450;2023-01-13T01:04:18;9.00;99.90
6244;DHT22;3155;49.940;8.450;2023-01-13T01:06:45;9.00;99.90
6244;DHT22;3155;49.940;8.450;2023-01-13T01:09:15;9.10;99.90
6244;DHT22;3155;49.940;8.450;2023-01-13T01:11:45;9.10;99.90
6244;DHT22;3155;49.940;8.450;2023-01-13T01:14:12;9.10;99.90
6244;DHT22;3155;49.940;8.450;2023-01-13T01:16:40;9.00;99.90
6244;DHT22;3155;49.940;8.450;2023-01-13T01:19:07;9.00;99.90
6244;DHT22;3155;49.940;8.450;2023-01-13T01:21:34;9.10;99.90
6244;DHT22;3155;49.940;8.450;2023-01-13T01:24:02;9.10;99.90
6244;DHT22;3155;49.940;8.450;2023-01-13T01:26:29;9.10;99.90
6244;DHT22;3155;49.940;8.450;2023-01-13T01:28:57;9.10;99.90
6244;DHT22;3155;49.940;8.450;2023-01-13T01:31:29;9.10;99.90
6244;DHT22;3155;49.940;8.450;2023-01-13T01:34:00;9.10;99.90
6244;DHT22;3155;49.940;8.450;2023-01-13T01:36:27;9.10;99.90
6244;DHT22;3155;49.940;8.450;2023-01-13T01:38:56;9.10;99.90
6244;DHT22;3155;49.940;8.450;2023-01-13T01:41:28;9.20;99.90
6244;DHT22;3155;49.940;8.450;2023-01-13T01:46:41;9.20;99.90
6244;DHT22;3155;49.940;8.450;2023-01-13T01:49:20;9.20;99.90
6244;DHT22;3155;49.940;8.450;2023-01-13T01:51:58;9.20;99.90
6244;DHT22;3155;49.940;8.450;2023-01-13T01:54:48;9.20;99.90
6244;DHT22;3155;49.940;8.450;2023-01-13T01:57:35;9.20;99.90
6244;DHT22;3155;49.940;8.450;2023-01-13T02:00:10;9.20;99.90
6244;DHT22;3155;49.940;8.450;2023-01-13T02:02:39;9.20;99.90
6244;DHT22;3155;49.940;8.450;2023-01-13T02:05:06;9.20;99.90
6244;DHT22;3155;49.940;8.450;2023-01-13T02:07:34;9.20;99.90
6244;DHT22;3155;49.940;8.450;2023-01-13T02:10:06;9.30;99.90
6244;DHT22;3155;49.940;8.450;2023-01-13T02:12:34;9.30;99.90
6244;DHT22;3155;49.940;8.450;2023-01-13T02:15:08;9.30;99.90
6244;DHT22;3155;49.940;8.450;2023-01-13T02:17:52;9.30;99.90
6244;DHT22;3155;49.940;8.450;2023-01-13T02:26:33;9.20;99.90
6244;DHT22;3155;49.940;8.450;2023-01-13T02:32:47;9.30;99.90
6244;DHT22;3155;49.940;8.450;2023-01-13T02:37:43;9.40;99.90
6244;DHT22;3155;49.940;8.450;2023-01-13T02:40:24;9.30;99.90
6244;DHT22;3155;49.940;8.450;2023-01-13T02:43:13;9.40;99.90
6244;DHT22;3155;49.940;8.450;2023-01-13T02:46:24;9.40;99.90
6244;DHT22;3155;49.940;8.450;2023-01-13T02:48:56;9.50;99.90
6244;DHT22;3155;49.940;8.450;2023-01-13T02:51:25;9.60;99.90
6244;DHT22;3155;49.940;8.450;2023-01-13T02:54:04;9.60;99.90
6244;DHT22;3155;49.940;8.450;2023-01-13T02:56:36;9.60;99.90
6244;DHT22;3155;49.940;8.450;2023-01-13T02:59:08;9.60;99.90
6244;DHT22;3155;49.940;8.450;2023-01-13T03:01:38;9.60;99.90
6244;DHT22;3155;49.940;8.450;2023-01-13T03:04:12;9.60;99.90
6244;DHT22;3155;49.940;8.450;2023-01-13T03:07:01;9.60;99.90
6244;DHT22;3155;49.940;8.450;2023-01-13T03:09:39;9.50;99.90
6244;DHT22;3155;49.940;8.450;2023-01-13T03:12:18;9.60;99.90
6244;DHT22;3155;49.940;8.450;2023-01-13T03:15:21;9.50;99.90
6244;DHT22;3155;49.940;8.450;2023-01-13T03:18:29;9.50;99.90
6244;DHT22;3155;49.940;8.450;2023-01-13T03:24:08;9.50;99.90
6244;DHT22;3155;49.940;8.450;2023-01-13T03:29:16;9.50;99.90
6244;DHT22;3155;49.940;8.450;2023-01-13T03:34:26;9.50;99.90
6244;DHT22;3155;49.940;8.450;2023-01-13T03:36:59;9.50;99.90
6244;DHT22;3155;49.940;8.450;2023-01-13T03:39:32;9.50;99.90
6244;DHT22;3155;49.940;8.450;2023-01-13T03:42:10;9.50;99.90
6244;DHT22;3155;49.940;8.450;2023-01-13T03:44:50;9.60;99.90
6244;DHT22;3155;49.940;8.450;2023-01-13T03:50:21;9.50;99.90
6244;DHT22;3155;49.940;8.450;2023-01-13T03:52:52;9.60;99.90
6244;DHT22;3155;49.940;8.450;2023-01-13T03:55:25;9.60;99.90
6244;DHT22;3155;49.940;8.450;2023-01-13T04:00:56;9.60;99.90
6244;DHT22;3155;49.940;8.450;2023-01-13T04:03:38;9.60;99.90
6244;DHT22;3155;49.940;8.450;2023-01-13T04:06:14;9.60;99.90
6244;DHT22;3155;49.940;8.450;2023-01-13T04:08:50;9.60;99.90
6244;DHT22;3155;49.940;8.450;2023-01-13T04:11:27;9.60;99.90
6244;DHT22;3155;49.940;8.450;2023-01-13T04:13:56;9.60;99.90
6244;DHT22;3155;49.940;8.450;2023-01-13T04:16:24;9.60;99.90
6244;DHT22;3155;49.940;8.450;2023-01-13T04:18:50;9.60;99.90
6244;DHT22;3155;49.940;8.450;2023-01-13T04:21:17;9.60;99.90
6244;DHT22;3155;49.940;8.450;2023-01-13T04:23:47;9.70;99.90
6244;DHT22;3155;49.940;8.450;2023-01-13T04:26:17;9.60;99.90
6244;DHT22;3155;49.940;8.450;2023-01-13T04:28:45;9.60;99.90
6244;DHT22;3155;49.940;8.450;2023-01-13T04:31:12;9.60;99.90
6244;DHT22;3155;49.940;8.450;2023-01-13T04:33:39;9.70;99.90
6244;DHT22;3155;49.940;8.450;2023-01-13T04:36:06;9.60;99.90
6244;DHT22;3155;49.940;8.450;2023-01-13T04:38:33;9.60;99.90
6244;DHT22;3155;49.940;8.450;2023-01-13T04:41:00;9.60;99.90
6244;DHT22;3155;49.940;8.450;2023-01-13T04:43:27;9.70;99.90
6244;DHT22;3155;49.940;8.450;2023-01-13T04:45:53;9.70;99.90
6244;DHT22;3155;49.940;8.450;2023-01-13T04:48:20;9.60;99.90
6244;DHT22;3155;49.940;8.450;2023-01-13T04:50:47;9.60;99.90
6244;DHT22;3155;49.940;8.450;2023-01-13T04:53:14;9.60;99.90
6244;DHT22;3155;49.940;8.450;2023-01-13T04:55:41;9.60;99.90
6244;DHT22;3155;49.940;8.450;2023-01-13T04:58:10;9.60;99.90
6244;DHT22;3155;49.940;8.450;2023-01-13T05:00:37;9.60;99.90
6244;DHT22;3155;49.940;8.450;2023-01-13T05:03:04;9.60;99.90
6244;DHT22;3155;49.940;8.450;2023-01-13T05:05:31;9.60;99.90
6244;DHT22;3155;49.940;8.450;2023-01-13T05:07:58;9.60;99.90
6244;DHT22;3155;49.940;8.450;2023-01-13T05:10:26;9.60;99.90
6244;DHT22;3155;49.940;8.450;2023-01-13T05:12:53;9.50;99.90
6244;DHT22;3155;49.940;8.450;2023-01-13T05:15:40;9.50;99.90
6244;DHT22;3155;49.940;8.450;2023-01-13T05:18:26;9.40;99.90
6244;DHT22;3155;49.940;8.450;2023-01-13T05:20:54;9.30;99.90
6244;DHT22;3155;49.940;8.450;2023-01-13T05:23:21;9.30;99.90
6244;DHT22;3155;49.940;8.450;2023-01-13T05:26:07;9.30;99.90
6244;DHT22;3155;49.940;8.450;2023-01-13T05:28:34;9.20;99.90
6244;DHT22;3155;49.940;8.450;2023-01-13T05:31:00;9.10;99.90
6244;DHT22;3155;49.940;8.450;2023-01-13T05:33:28;9.00;99.90
6244;DHT22;3155;49.940;8.450;2023-01-13T05:35:54;8.80;99.90
6244;DHT22;3155;49.940;8.450;2023-01-13T05:38:21;8.80;99.90
6244;DHT22;3155;49.940;8.450;2023-01-13T05:40:48;8.70;99.90
6244;DHT22;3155;49.940;8.450;2023-01-13T05:43:33;8.60;1.00
6244;DHT22;3155;49.940;8.450;2023-01-13T05:46:08;8.60;1.00
6244;DHT22;3155;49.940;8.450;2023-01-13T05:48:42;8.50;1.00
6244;DHT22;3155;49.940;8.450;2023-01-13T05:51:11;8.50;1.00
6244;DHT22;3155;49.940;8.450;2023-01-13T05:53:38;8.40;1.00
6244;DHT22;3155;49.940;8.450;2023-01-13T05:56:07;8.30;99.90
6244;DHT22;3155;49.940;8.450;2023-01-13T05:58:34;8.20;99.90
6244;DHT22;3155;49.940;8.450;2023-01-13T06:01:04;8.10;99.90
6244;DHT22;3155;49.940;8.450;2023-01-13T06:03:32;8.10;99.90
6244;DHT22;3155;49.940;8.450;2023-01-13T06:05:59;8.10;1.00
6244;DHT22;3155;49.940;8.450;2023-01-13T06:08:28;8.00;1.00
6244;DHT22;3155;49.940;8.450;2023-01-13T06:10:57;8.10;99.90
6244;DHT22;3155;49.940;8.450;2023-01-13T06:13:24;8.10;99.90
6244;DHT22;3155;49.940;8.450;2023-01-13T06:15:58;8.10;99.90
6244;DHT22;3155;49.940;8.450;2023-01-13T06:18:25;8.10;99.90
6244;DHT22;3155;49.940;8.450;2023-01-13T06:20:52;8.10;99.90
6244;DHT22;3155;49.940;8.450;2023-01-13T06:23:19;8.00;1.00
6244;DHT22;3155;49.940;8.450;2023-01-13T06:28:17;7.80;99.90
6244;DHT22;3155;49.940;8.450;2023-01-13T06:30:48;7.60;1.00
6244;DHT22;3155;49.940;8.450;2023-01-13T06:33:20;7.40;99.90
6244;DHT22;3155;49.940;8.450;2023-01-13T06:35:54;7.30;99.90
6244;DHT22;3155;49.940;8.450;2023-01-13T06:38:24;7.20;99.90
6244;DHT22;3155;49.940;8.450;2023-01-13T06:40:51;7.10;99.90
6244;DHT22;3155;49.940;8.450;2023-01-13T06:43:18;7.10;1.00
6244;DHT22;3155;49.940;8.450;2023-01-13T06:46:10;7.10;91.80
6244;DHT22;3155;49.940;8.450;2023-01-13T06:48:37;7.10;99.90
6244;DHT22;3155;49.940;8.450;2023-01-13T06:51:04;7.10;99.90
6244;DHT22;3155;49.940;8.450;2023-01-13T06:53:31;7.10;99.90
6244;DHT22;3155;49.940;8.450;2023-01-13T06:55:58;7.10;99.90
6244;DHT22;3155;49.940;8.450;2023-01-13T06:58:25;7.00;99.90
6244;DHT22;3155;49.940;8.450;2023-01-13T07:00:52;7.00;99.90
6244;DHT22;3155;49.940;8.450;2023-01-13T07:03:19;7.00;99.90
6244;DHT22;3155;49.940;8.450;2023-01-13T07:05:53;6.90;99.90
6244;DHT22;3155;49.940;8.450;2023-01-13T07:08:22;6.90;99.90
6244;DHT22;3155;49.940;8.450;2023-01-13T07:10:49;6.80;99.90
6244;DHT22;3155;49.940;8.450;2023-01-13T07:13:17;6.80;99.90
6244;DHT22;3155;49.940;8.450;2023-01-13T07:16:04;6.70;99.90
6244;DHT22;3155;49.940;8.450;2023-01-13T07:18:32;6.70;99.90
6244;DHT22;3155;49.940;8.450;2023-01-13T07:21:03;6.70;99.90
6244;DHT22;3155;49.940;8.450;2023-01-13T07:23:32;6.70;99.90
6244;DHT22;3155;49.940;8.450;2023-01-13T07:26:00;6.70;99.90
6244;DHT22;3155;49.940;8.450;2023-01-13T07:28:28;6.60;99.90
6244;DHT22;3155;49.940;8.450;2023-01-13T07:30:55;6.60;99.90
6244;DHT22;3155;49.940;8.450;2023-01-13T07:33:23;6.60;99.90
6244;DHT22;3155;49.940;8.450;2023-01-13T07:36:16;6.50;99.90
6244;DHT22;3155;49.940;8.450;2023-01-13T07:38:44;6.40;99.90
6244;DHT22;3155;49.940;8.450;2023-01-13T07:41:12;6.30;99.90
6244;DHT22;3155;49.940;8.450;2023-01-13T07:43:58;6.20;99.90
6244;DHT22;3155;49.940;8.450;2023-01-13T07:46:26;6.10;99.90
6244;DHT22;3155;49.940;8.450;2023-01-13T07:48:52;6.10;99.90
6244;DHT22;3155;49.940;8.450;2023-01-13T07:51:19;6.10;1.00
6244;DHT22;3155;49.940;8.450;2023-01-13T07:53:46;6.20;1.00
6244;DHT22;3155;49.940;8.450;2023-01-13T07:56:13;6.30;1.00
6244;DHT22;3155;49.940;8.450;2023-01-13T07:58:39;6.30;1.00
6244;DHT22;3155;49.940;8.450;2023-01-13T08:01:11;6.30;1.00
6244;DHT22;3155;49.940;8.450;2023-01-13T08:03:39;6.40;1.00
6244;DHT22;3155;49.940;8.450;2023-01-13T08:06:06;6.40;1.00
6244;DHT22;3155;49.940;8.450;2023-01-13T08:08:33;6.40;1.00
6244;DHT22;3155;49.940;8.450;2023-01-13T08:11:01;6.50;1.00
6244;DHT22;3155;49.940;8.450;2023-01-13T08:13:28;6.60;1.00
6244;DHT22;3155;49.940;8.450;2023-01-13T08:16:02;6.60;99.90
6244;DHT22;3155;49.940;8.450;2023-01-13T08:18:30;6.70;99.90
6244;DHT22;3155;49.940;8.450;2023-01-13T08:21:01;6.80;99.90
6244;DHT22;3155;49.940;8.450;2023-01-13T08:23:28;6.90;99.90
6244;DHT22;3155;49.940;8.450;2023-01-13T08:26:03;7.00;99.90
6244;DHT22;3155;49.940;8.450;2023-01-13T08:28:30;7.10;99.90
6244;DHT22;3155;49.940;8.450;2023-01-13T08:31:02;7.20;99.90
6244;DHT22;3155;49.940;8.450;2023-01-13T08:33:32;7.40;99.90
6244;DHT22;3155;49.940;8.450;2023-01-13T08:36:03;7.50;99.90
6244;DHT22;3155;49.940;8.450;2023-01-13T08:38:30;7.60;99.90
6244;DHT22;3155;49.940;8.450;2023-01-13T08:40:57;7.60;99.90
6244;DHT22;3155;49.940;8.450;2023-01-13T08:43:24;7.70;99.90
6244;DHT22;3155;49.940;8.450;2023-01-13T08:46:00;7.70;99.90
6244;DHT22;3155;49.940;8.450;2023-01-13T08:48:27;7.70;99.90
6244;DHT22;3155;49.940;8.450;2023-01-13T08:51:08;7.70;99.90
6244;DHT22;3155;49.940;8.450;2023-01-13T08:53:34;7.80;99.90
6244;DHT22;3155;49.940;8.450;2023-01-13T08:56:10;7.80;99.90
6244;DHT22;3155;49.940;8.450;2023-01-13T08:58:38;7.90;99.90
6244;DHT22;3155;49.940;8.450;2023-01-13T09:01:06;7.90;99.90
6244;DHT22;3155;49.940;8.450;2023-01-13T09:03:34;7.90;99.90
6244;DHT22;3155;49.940;8.450;2023-01-13T09:06:01;8.10;99.90
6244;DHT22;3155;49.940;8.450;2023-01-13T09:08:27;8.40;99.90
6244;DHT22;3155;49.940;8.450;2023-01-13T09:10:57;8.40;99.90
6244;DHT22;3155;49.940;8.450;2023-01-13T09:13:24;8.40;99.90
6244;DHT22;3155;49.940;8.450;2023-01-13T09:15:51;8.40;99.90
6244;DHT22;3155;49.940;8.450;2023-01-13T09:18:21;8.40;99.90
6244;DHT22;3155;49.940;8.450;2023-01-13T09:20:48;8.40;99.90
6244;DHT22;3155;49.940;8.450;2023-01-13T09:23:15;8.80;99.90
6244;DHT22;3155;49.940;8.450;2023-01-13T09:25:45;9.10;99.90
6244;DHT22;3155;49.940;8.450;2023-01-13T09:28:12;9.20;99.90
6244;DHT22;3155;49.940;8.450;2023-01-13T09:30:39;9.20;99.90
6244;DHT22;3155;49.940;8.450;2023-01-13T09:33:06;9.10;99.90
6244;DHT22;3155;49.940;8.450;2023-01-13T09:35:56;8.80;99.90
6244;DHT22;3155;49.940;8.450;2023-01-13T09:38:24;8.70;99.90
6244;DHT22;3155;49.940;8.450;2023-01-13T09:40:51;8.70;99.90
6244;DHT22;3155;49.940;8.450;2023-01-13T09:43:29;8.80;99.90
6244;DHT22;3155;49.940;8.450;2023-01-13T09:46:21;8.80;99.90
6244;DHT22;3155;49.940;8.450;2023-01-13T09:49:20;8.90;99.90
6244;DHT22;3155;49.940;8.450;2023-01-13T09:52:19;8.80;99.90
6244;DHT22;3155;49.940;8.450;2023-01-13T09:55:10;8.70;99.90
6244;DHT22;3155;49.940;8.450;2023-01-13T09:57:37;9.30;99.90
6244;DHT22;3155;49.940;8.450;2023-01-13T10:00:22;10.10;99.90
6244;DHT22;3155;49.940;8.450;2023-01-13T10:03:20;10.90;99.90
6244;DHT22;3155;49.940;8.450;2023-01-13T10:05:49;11.50;99.90
6244;DHT22;3155;49.940;8.450;2023-01-13T10:10:55;12.10;99.90
6244;DHT22;3155;49.940;8.450;2023-01-13T10:13:29;12.20;99.90
6244;DHT22;3155;49.940;8.450;2023-01-13T10:16:23;12.30;99.90
6244;DHT22;3155;49.940;8.450;2023-01-13T10:19:05;12.30;99.90
6244;DHT22;3155;49.940;8.450;2023-01-13T10:24:42;12.30;99.90
6244;DHT22;3155;49.940;8.450;2023-01-13T10:27:34;12.70;99.90
6244;DHT22;3155;49.940;8.450;2023-01-13T10:32:56;12.70;99.90
6244;DHT22;3155;49.940;8.450;2023-01-13T10:35:56;11.80;99.90
6244;DHT22;3155;49.940;8.450;2023-01-13T10:38:39;11.40;99.90
6244;DHT22;3155;49.940;8.450;2023-01-13T10:43:43;10.90;99.90
6244;DHT22;3155;49.940;8.450;2023-01-13T10:46:13;10.80;99.90
6244;DHT22;3155;49.940;8.450;2023-01-13T10:48:56;10.80;99.90
6244;DHT22;3155;49.940;8.450;2023-01-13T10:56:43;10.70;99.90
6244;DHT22;3155;49.940;8.450;2023-01-13T10:59:25;10.40;99.90
6244;DHT22;3155;49.940;8.450;2023-01-13T11:02:01;10.00;99.90
6244;DHT22;3155;49.940;8.450;2023-01-13T11:07:40;8.60;99.90
6244;DHT22;3155;49.940;8.450;2023-01-13T11:16:04;7.90;99.90
6244;DHT22;3155;49.940;8.450;2023-01-13T11:18:42;8.00;99.90
6244;DHT22;3155;49.940;8.450;2023-01-13T11:21:31;8.20;99.90
6244;DHT22;3155;49.940;8.450;2023-01-13T11:27:02;9.60;99.90
6244;DHT22;3155;49.940;8.450;2023-01-13T11:32:24;10.50;99.90
6244;DHT22;3155;49.940;8.450;2023-01-13T11:35:08;11.10;99.90
6244;DHT22;3155;49.940;8.450;2023-01-13T11:37:44;11.30;99.90
6244;DHT22;3155;49.940;8.450;2023-01-13T11:43:09;10.80;99.90
6244;DHT22;3155;49.940;8.450;2023-01-13T11:45:43;10.60;99.90
6244;DHT22;3155;49.940;8.450;2023-01-13T11:48:21;10.90;99.90
6244;DHT22;3155;49.940;8.450;2023-01-13T11:51:07;11.40;99.90
6244;DHT22;3155;49.940;8.450;2023-01-13T12:04:54;13.00;99.90
6244;DHT22;3155;49.940;8.450;2023-01-13T12:07:58;13.10;99.90
6244;DHT22;3155;49.940;8.450;2023-01-13T12:10:56;12.70;99.90
6244;DHT22;3155;49.940;8.450;2023-01-13T12:19:17;12.30;99.90
6244;DHT22;3155;49.940;8.450;2023-01-13T12:27:58;13.60;99.90
6244;DHT22;3155;49.940;8.450;2023-01-13T12:30:02;13.90;99.90
6244;DHT22;3155;49.940;8.450;2023-01-13T12:32:35;13.40;99.90
6244;DHT22;3155;49.940;8.450;2023-01-13T12:35:19;13.30;99.90
6244;DHT22;3155;49.940;8.450;2023-01-13T12:37:55;13.30;99.90
6244;DHT22;3155;49.940;8.450;2023-01-13T12:45:48;13.10;99.90
6244;DHT22;3155;49.940;8.450;2023-01-13T12:51:28;12.90;99.90
6244;DHT22;3155;49.940;8.450;2023-01-13T12:54:00;13.00;99.90
6244;DHT22;3155;49.940;8.450;2023-01-13T12:56:43;13.60;99.90
6244;DHT22;3155;49.940;8.450;2023-01-13T13:02:34;14.60;99.90
6244;DHT22;3155;49.940;8.450;2023-01-13T13:04:47;14.90;99.90
6244;DHT22;3155;49.940;8.450;2023-01-13T13:07:31;15.40;99.90
6244;DHT22;3155;49.940;8.450;2023-01-13T13:10:19;14.80;99.90
6244;DHT22;3155;49.940;8.450;2023-01-13T13:12:52;14.60;99.90
6244;DHT22;3155;49.940;8.450;2023-01-13T13:15:38;14.50;99.90
6244;DHT22;3155;49.940;8.450;2023-01-13T13:35:32;11.20;99.90
6244;DHT22;3155;49.940;8.450;2023-01-13T13:38:21;11.10;99.90
6244;DHT22;3155;49.940;8.450;2023-01-13T13:41:17;11.00;99.90
6244;DHT22;3155;49.940;8.450;2023-01-13T13:44:30;10.80;99.90
6244;DHT22;3155;49.940;8.450;2023-01-13T13:47:16;10.40;99.90
6244;DHT22;3155;49.940;8.450;2023-01-13T13:49:46;10.30;99.90
6244;DHT22;3155;49.940;8.450;2023-01-13T13:52:23;10.00;99.90
6244;DHT22;3155;49.940;8.450;2023-01-13T13:54:56;9.70;99.90
6244;DHT22;3155;49.940;8.450;2023-01-13T13:58:11;9.70;99.90
6244;DHT22;3155;49.940;8.450;2023-01-13T14:00:30;9.90;99.90
6244;DHT22;3155;49.940;8.450;2023-01-13T14:03:06;10.00;99.90
6244;DHT22;3155;49.940;8.450;2023-01-13T14:06:04;10.20;99.90
6244;DHT22;3155;49.940;8.450;2023-01-13T14:08:38;10.10;99.90
6244;DHT22;3155;49.940;8.450;2023-01-13T14:11:31;9.90;99.90
6244;DHT22;3155;49.940;8.450;2023-01-13T14:14:02;9.60;99.90
6244;DHT22;3155;49.940;8.450;2023-01-13T14:16:31;9.50;99.90
6244;DHT22;3155;49.940;8.450;2023-01-13T14:18:58;8.90;99.90
6244;DHT22;3155;49.940;8.450;2023-01-13T14:21:27;8.10;99.90
6244;DHT22;3155;49.940;8.450;2023-01-13T14:24:01;7.60;99.90
6244;DHT22;3155;49.940;8.450;2023-01-13T14:26:36;7.30;99.90
6244;DHT22;3155;49.940;8.450;2023-01-13T14:29:03;7.00;99.90
6244;DHT22;3155;49.940;8.450;2023-01-13T14:31:31;6.80;99.90
6244;DHT22;3155;49.940;8.450;2023-01-13T14:34:01;6.60;99.90
6244;DHT22;3155;49.940;8.450;2023-01-13T14:36:48;6.60;99.90
6244;DHT22;3155;49.940;8.450;2023-01-13T14:41:45;6.80;99.90
6244;DHT22;3155;49.940;8.450;2023-01-13T14:44:28;6.80;99.90
6244;DHT22;3155;49.940;8.450;2023-01-13T14:46:57;6.80;99.90
6244;DHT22;3155;49.940;8.450;2023-01-13T14:49:39;6.80;99.90
6244;DHT22;3155;49.940;8.450;2023-01-13T14:52:22;7.00;99.90
6244;DHT22;3155;49.940;8.450;2023-01-13T14:54:52;7.20;99.90
6244;DHT22;3155;49.940;8.450;2023-01-13T14:57:32;7.40;99.90
6244;DHT22;3155;49.940;8.450;2023-01-13T15:02:59;7.60;99.90
6244;DHT22;3155;49.940;8.450;2023-01-13T15:07:54;7.90;99.90
6244;DHT22;3155;49.940;8.450;2023-01-13T15:10:26;7.90;99.90
6244;DHT22;3155;49.940;8.450;2023-01-13T15:12:56;8.00;99.90
6244;DHT22;3155;49.940;8.450;2023-01-13T15:15:38;8.00;99.90
6244;DHT22;3155;49.940;8.450;2023-01-13T15:18:15;8.00;99.90
6244;DHT22;3155;49.940;8.450;2023-01-13T15:20:43;7.90;99.90
6244;DHT22;3155;49.940;8.450;2023-01-13T15:23:10;7.90;99.90
6244;DHT22;3155;49.940;8.450;2023-01-13T15:25:41;7.90;99.90
6244;DHT22;3155;49.940;8.450;2023-01-13T15:28:17;7.80;99.90
6244;DHT22;3155;49.940;8.450;2023-01-13T15:30:46;7.70;99.90
6244;DHT22;3155;49.940;8.450;2023-01-13T15:33:14;7.70;99.90
6244;DHT22;3155;49.940;8.450;2023-01-13T15:35:46;7.60;99.90
6244;DHT22;3155;49.940;8.450;2023-01-13T15:38:18;7.50;99.90
6244;DHT22;3155;49.940;8.450;2023-01-13T15:40:46;7.30;99.90
6244;DHT22;3155;49.940;8.450;2023-01-13T15:43:15;7.10;99.90
6244;DHT22;3155;49.940;8.450;2023-01-13T15:46:03;7.20;99.90
6244;DHT22;3155;49.940;8.450;2023-01-13T15:49:18;7.20;99.90
6244;DHT22;3155;49.940;8.450;2023-01-13T15:51:48;7.30;99.90
6244;DHT22;3155;49.940;8.450;2023-01-13T15:54:19;7.30;99.90
6244;DHT22;3155;49.940;8.450;2023-01-13T15:56:50;7.20;99.90
6244;DHT22;3155;49.940;8.450;2023-01-13T15:59:21;7.20;99.90
6244;DHT22;3155;49.940;8.450;2023-01-13T16:01:49;7.10;99.90
6244;DHT22;3155;49.940;8.450;2023-01-13T16:04:16;7.00;99.90
6244;DHT22;3155;49.940;8.450;2023-01-13T16:06:43;6.90;99.90
6244;DHT22;3155;49.940;8.450;2023-01-13T16:09:13;6.80;99.90
6244;DHT22;3155;49.940;8.450;2023-01-13T16:11:40;6.70;99.90
6244;DHT22;3155;49.940;8.450;2023-01-13T16:14:10;6.70;99.90
6244;DHT22;3155;49.940;8.450;2023-01-13T16:16:37;6.70;99.90
6244;DHT22;3155;49.940;8.450;2023-01-13T16:19:04;6.80;99.90
6244;DHT22;3155;49.940;8.450;2023-01-13T16:21:30;6.90;99.90
6244;DHT22;3155;49.940;8.450;2023-01-13T16:23:57;6.90;99.90
6244;DHT22;3155;49.940;8.450;2023-01-13T16:26:26;6.90;99.90
6244;DHT22;3155;49.940;8.450;2023-01-13T16:28:56;6.90;99.90
6244;DHT22;3155;49.940;8.450;2023-01-13T16:33:52;7.00;99.90
6244;DHT22;3155;49.940;8.450;2023-01-13T16:36:19;7.00;99.90
6244;DHT22;3155;49.940;8.450;2023-01-13T16:38:51;7.10;99.90
6244;DHT22;3155;49.940;8.450;2023-01-13T16:41:20;7.20;99.90
6244;DHT22;3155;49.940;8.450;2023-01-13T16:43:47;7.30;99.90
6244;DHT22;3155;49.940;8.450;2023-01-13T16:46:28;7.20;99.90
6244;DHT22;3155;49.940;8.450;2023-01-13T16:49:00;7.20;99.90
6244;DHT22;3155;49.940;8.450;2023-01-13T16:51:27;7.20;99.90
6244;DHT22;3155;49.940;8.450;2023-01-13T16:53:56;7.20;99.90
6244;DHT22;3155;49.940;8.450;2023-01-13T16:56:31;7.20;99.90
6244;DHT22;3155;49.940;8.450;2023-01-13T16:59:11;7.20;99.90
6244;DHT22;3155;49.940;8.450;2023-01-13T17:01:42;7.10;99.90
6244;DHT22;3155;49.940;8.450;2023-01-13T17:04:16;7.10;99.90
6244;DHT22;3155;49.940;8.450;2023-01-13T17:09:21;7.00;99.90
6244;DHT22;3155;49.940;8.450;2023-01-13T17:11:49;7.00;99.90
6244;DHT22;3155;49.940;8.450;2023-01-13T17:14:15;6.90;99.90
6244;DHT22;3155;49.940;8.450;2023-01-13T17:16:45;6.90;99.90
6244;DHT22;3155;49.940;8.450;2023-01-13T17:19:13;6.80;99.90
6244;DHT22;3155;49.940;8.450;2023-01-13T17:21:39;6.80;99.90
6244;DHT22;3155;49.940;8.450;2023-01-13T17:24:06;6.70;99.90
6244;DHT22;3155;49.940;8.450;2023-01-13T17:26:37;6.60;99.90
6244;DHT22;3155;49.940;8.450;2023-01-13T17:29:06;6.60;99.90
6244;DHT22;3155;49.940;8.450;2023-01-13T17:31:36;6.70;99.90
6244;DHT22;3155;49.940;8.450;2023-01-13T17:34:04;6.70;99.90
6244;DHT22;3155;49.940;8.450;2023-01-13T17:36:33;6.70;99.90
6244;DHT22;3155;49.940;8.450;2023-01-13T17:38:59;6.80;99.90
6244;DHT22;3155;49.940;8.450;2023-01-13T17:41:26;6.80;99.90
6244;DHT22;3155;49.940;8.450;2023-01-13T17:43:53;6.80;99.90
6244;DHT22;3155;49.940;8.450;2023-01-13T17:46:23;6.90;99.90
6244;DHT22;3155;49.940;8.450;2023-01-13T17:48:50;7.00;99.90
6244;DHT22;3155;49.940;8.450;2023-01-13T17:51:20;7.00;99.90
6244;DHT22;3155;49.940;8.450;2023-01-13T17:53:48;6.90;99.90
6244;DHT22;3155;49.940;8.450;2023-01-13T17:56:17;6.70;99.90
6244;DHT22;3155;49.940;8.450;2023-01-13T17:58:44;6.60;99.90
6244;DHT22;3155;49.940;8.450;2023-01-13T18:01:15;6.50;99.90
6244;DHT22;3155;49.940;8.450;2023-01-13T18:03:42;6.50;99.90
6244;DHT22;3155;49.940;8.450;2023-01-13T18:06:21;6.40;99.90
6244;DHT22;3155;49.940;8.450;2023-01-13T18:08:48;6.40;99.90
6244;DHT22;3155;49.940;8.450;2023-01-13T18:11:16;6.40;99.90
6244;DHT22;3155;49.940;8.450;2023-01-13T18:13:51;6.50;99.90
6244;DHT22;3155;49.940;8.450;2023-01-13T18:16:22;6.60;99.90
6244;DHT22;3155;49.940;8.450;2023-01-13T18:18:53;6.60;99.90
6244;DHT22;3155;49.940;8.450;2023-01-13T18:21:40;6.60;99.90
6244;DHT22;3155;49.940;8.450;2023-01-13T18:24:26;6.70;99.90
6244;DHT22;3155;49.940;8.450;2023-01-13T18:27:13;6.60;99.90
6244;DHT22;3155;49.940;8.450;2023-01-13T18:29:54;6.60;99.90
6244;DHT22;3155;49.940;8.450;2023-01-13T18:32:27;6.50;99.90
6244;DHT22;3155;49.940;8.450;2023-01-13T18:34:59;6.50;99.90
6244;DHT22;3155;49.940;8.450;2023-01-13T18:37:32;6.50;99.90
6244;DHT22;3155;49.940;8.450;2023-01-13T18:40:04;6.60;99.90
6244;DHT22;3155;49.940;8.450;2023-01-13T18:42:31;6.60;99.90
6244;DHT22;3155;49.940;8.450;2023-01-13T18:45:30;6.60;99.90
6244;DHT22;3155;49.940;8.450;2023-01-13T18:47:59;6.60;99.90
6244;DHT22;3155;49.940;8.450;2023-01-13T18:50:30;6.60;99.90
6244;DHT22;3155;49.940;8.450;2023-01-13T18:52:56;6.60;99.90
6244;DHT22;3155;49.940;8.450;2023-01-13T18:55:27;6.70;99.90
6244;DHT22;3155;49.940;8.450;2023-01-13T18:57:54;6.60;99.90
6244;DHT22;3155;49.940;8.450;2023-01-13T19:00:21;6.60;99.90
6244;DHT22;3155;49.940;8.450;2023-01-13T19:02:50;6.60;99.90